Weather History for Lacon, IL

Change the Weather History Date:

Tuesday, December 17, 2013

  Actual Average (KPIA) Record (KPIA)
Temperature  
Mean Temperature 26 °F 28 °F  
Max Temperature 34 °F 35 °F 59 °F (1895)
Min Temperature 19 °F 20 °F -8 °F (1945)
Degree Days  
Heating Degree Days 38 37  
Month to date heating degree days 587  
Since 1 July heating degree days 1735  
Cooling Degree Days 0 0  
Month to date cooling degree days 0  
Year to date cooling degree days 1039  
Moisture  
Dew Point 20 °F    
Average Humidity 80    
Maximum Humidity 96    
Minimum Humidity 61    
Precipitation  
Precipitation 0.00 in 0.08 in 0.49 in (1967)
Month to date precipitation 1.46  
Year to date precipitation 35.53  
Snow  
Snow 0.00 in 0.20 in 3.10 in (1985)
Month to date snowfall 3.6  
Since 1 July snowfall 4.7  
Snow Depth -    
Sea Level Pressure  
Sea Level Pressure 30.09 in    
Wind  
Wind Speed 7 mph (West)    
Max Wind Speed 16 mph    
Max Gust Speed 23 mph    
Visibility 7 miles    
Events Snow    
T = Trace of Precipitation, MM = Missing Value Source: NWS Daily Summary

Daily Weather History Graph

Daily Weather History Graph

Search for Another Location

Airport:

Trip Planner

Search our weather history database for the weather conditions in past years. The results will help you decide how hot, cold, wet, or windy it might be!

Date:

Astronomy

Dec. 17, 2013 Rise Set
Actual Time 7:16 AM CST 4:30 PM CST
Civil Twilight 6:45 AM CST 5:01 PM CST
Nautical Twilight 6:11 AM CST 5:36 PM CST
Astronomical Twilight 5:37 AM CST 6:10 PM CST
Moon 5:11 PM CST (12/17) 7:12 AM CST (12/17)
Length of Visible Light 10h 16m
Length of Day
9h 13m
Full, 100% of the Moon is Illuminated
Dec 17
Full
Dec 25
Last Quarter
Jan 1
New
Jan 7
First Quarter
Jan 15
Full

Hourly Weather History & Observations

Time (CST) Temp. Windchill Dew Point Humidity Pressure Visibility Wind Dir Wind Speed Gust Speed Precip Events Conditions
12:15 AM 19.8 °F 14.7 °F 18.5 °F 95% 30.09 in 4.0 mi West 3.5 mph - N/A   Overcast
12:35 AM 20.1 °F 12.3 °F 19.0 °F 96% 30.10 in 3.0 mi WSW 5.8 mph - N/A   Overcast
12:55 AM 20.3 °F 13.8 °F 19.4 °F 96% 30.10 in 3.0 mi West 4.6 mph - N/A   Overcast
1:15 AM 20.3 °F 11.5 °F 19.4 °F 96% 30.11 in 3.0 mi West 6.9 mph - N/A   Overcast
1:35 AM 20.3 °F 12.5 °F 19.2 °F 96% 30.10 in 5.0 mi WNW 5.8 mph - N/A   Overcast
1:55 AM 20.3 °F 13.8 °F 19.4 °F 96% 30.09 in 4.0 mi WNW 4.6 mph - N/A   Overcast
2:15 AM 20.7 °F 14.2 °F 19.4 °F 95% 30.11 in 4.0 mi West 4.6 mph - N/A   Overcast
2:35 AM 20.8 °F 16.0 °F 19.4 °F 94% 30.10 in 4.0 mi WNW 3.5 mph - N/A   Overcast
2:55 AM 21.0 °F 14.6 °F 19.8 °F 95% 30.09 in 4.0 mi West 4.6 mph - N/A   Overcast
3:15 AM 21.2 °F 16.4 °F 19.9 °F 95% 30.10 in 4.0 mi WSW 3.5 mph - N/A   Overcast
3:35 AM 21.2 °F 12.6 °F 19.8 °F 94% 30.08 in 4.0 mi WSW 6.9 mph - N/A   Overcast
3:55 AM 21.4 °F 13.8 °F 19.9 °F 94% 30.08 in 4.0 mi WSW 5.8 mph - N/A   Overcast
4:15 AM 21.6 °F 12.1 °F 20.3 °F 95% 30.08 in 3.0 mi West 8.1 mph - N/A   Overcast
4:35 AM 21.7 °F 14.3 °F 20.3 °F 94% 30.08 in 3.0 mi West 5.8 mph - N/A   Overcast
4:55 AM 21.9 °F 14.5 °F 20.7 °F 95% 30.09 in 3.0 mi West 5.8 mph - N/A   Overcast
5:15 AM 21.9 °F 13.4 °F 20.7 °F 95% 30.09 in 3.0 mi West 6.9 mph - N/A   Overcast
5:35 AM 21.9 °F 12.5 °F 20.7 °F 95% 30.09 in 3.0 mi West 8.1 mph - N/A   Overcast
5:55 AM 21.7 °F 10.8 °F 20.3 °F 94% 30.08 in 3.0 mi WSW 10.4 mph - N/A   Overcast
6:15 AM 21.7 °F 12.3 °F 20.7 °F 96% 30.07 in 3.0 mi WSW 8.1 mph - N/A   Overcast
6:35 AM 21.7 °F 12.3 °F 20.7 °F 96% 30.08 in 3.0 mi SW 8.1 mph - N/A   Overcast
6:55 AM 21.7 °F 13.2 °F 20.7 °F 96% 30.08 in 3.0 mi SW 6.9 mph - N/A   Overcast
7:15 AM 21.7 °F 11.5 °F 20.7 °F 96% 30.06 in 2.5 mi SW 9.2 mph - N/A   Overcast
7:35 AM 21.7 °F 10.2 °F 20.5 °F 95% 30.05 in 2.0 mi SW 11.5 mph - N/A   Overcast
7:55 AM 21.7 °F 11.5 °F 20.7 °F 96% 30.05 in 2.0 mi SW 9.2 mph - N/A   Overcast
8:15 AM 22.1 °F 13.7 °F 20.8 °F 95% 30.06 in 2.5 mi SW 6.9 mph - N/A   Scattered Clouds
8:35 AM 22.5 °F 13.2 °F 20.5 °F 92% 30.06 in 2.5 mi SSW 8.1 mph - N/A   Mostly Cloudy
8:55 AM 23.0 °F 12.4 °F 20.7 °F 91% 30.06 in 3.0 mi SW 10.4 mph - N/A   Overcast
9:15 AM 23.9 °F 15.0 °F 21.0 °F 89% 30.08 in 4.0 mi WSW 8.1 mph - N/A Snow Light Snow
9:35 AM 25.3 °F 15.3 °F 22.3 °F 88% 30.08 in 1.5 mi SW 10.4 mph - N/A Snow Light Snow
9:55 AM 26.6 °F 18.2 °F 23.0 °F 86% 30.08 in 3.0 mi WSW 8.1 mph - N/A Snow Light Snow
10:15 AM 27.0 °F 17.3 °F 22.8 °F 84% 30.08 in 5.0 mi West 10.4 mph - N/A   Scattered Clouds
10:35 AM 27.3 °F 19.9 °F 23.7 °F 86% 30.08 in 2.5 mi WSW 6.9 mph - N/A Snow Light Snow
10:55 AM 27.9 °F 19.1 °F 24.1 °F 86% 30.06 in 5.0 mi WSW 9.2 mph - N/A   Scattered Clouds
11:15 AM 29.1 °F 20.0 °F 24.8 °F 84% 30.05 in 7.0 mi WSW 10.4 mph 16.1 mph N/A   Scattered Clouds
11:35 AM 30.6 °F 22.4 °F 25.3 °F 81% 30.04 in 7.0 mi WSW 9.2 mph 16.1 mph N/A   Scattered Clouds
11:55 AM 31.6 °F 23.7 °F 25.2 °F 77% 30.04 in 10.0 mi West 9.2 mph 16.1 mph N/A   Clear
12:15 PM 32.0 °F 22.1 °F 25.5 °F 77% 30.04 in 10.0 mi West 13.8 mph 20.7 mph N/A   Clear
12:35 PM 32.7 °F 23.9 °F 25.7 °F 75% 30.03 in 10.0 mi West 11.5 mph 18.4 mph N/A   Clear
12:55 PM 33.6 °F 24.6 °F 25.7 °F 73% 30.03 in 10.0 mi West 12.7 mph 18.4 mph N/A   Clear
1:15 PM 33.8 °F 25.8 °F 25.9 °F 73% 30.03 in 10.0 mi West 10.4 mph 21.9 mph N/A   Clear
1:35 PM 34.2 °F 24.4 °F 26.1 °F 72% 30.03 in 10.0 mi West 15.0 mph 23.0 mph N/A   Clear
1:55 PM 34.5 °F 24.5 °F 25.7 °F 70% 30.03 in 10.0 mi West 16.1 mph 21.9 mph N/A   Clear
2:15 PM 34.7 °F 25.5 °F 25.2 °F 68% 30.03 in 10.0 mi West 13.8 mph 19.6 mph N/A   Clear
2:35 PM 34.2 °F 26.2 °F 22.1 °F 61% 30.05 in 10.0 mi WNW 10.4 mph 19.6 mph N/A   Clear
2:55 PM 33.8 °F 25.8 °F 22.1 °F 62% 30.05 in 10.0 mi West 10.4 mph 19.6 mph N/A   Clear
3:15 PM 33.3 °F 24.1 °F 21.9 °F 63% 30.06 in 10.0 mi WNW 12.7 mph 17.3 mph N/A   Clear
3:35 PM 32.9 °F 24.1 °F 21.2 °F 62% 30.06 in 10.0 mi WNW 11.5 mph 18.4 mph N/A   Clear
3:55 PM 32.2 °F 23.8 °F 20.7 °F 63% 30.06 in 10.0 mi WNW 10.4 mph 20.7 mph N/A   Clear
4:15 PM 32.0 °F 23.0 °F 19.8 °F 61% 30.07 in 10.0 mi West 11.5 mph - N/A   Clear
4:35 PM 31.1 °F 24.5 °F 19.0 °F 61% 30.08 in 10.0 mi West 6.9 mph 18.4 mph N/A   Clear
4:55 PM 30.0 °F 22.4 °F 18.5 °F 62% 30.09 in 10.0 mi West 8.1 mph - N/A   Clear
5:15 PM 29.7 °F 21.3 °F 18.1 °F 62% 30.10 in 10.0 mi WNW 9.2 mph 17.3 mph N/A   Clear
5:35 PM 29.1 °F 20.0 °F 17.8 °F 63% 30.11 in 10.0 mi WNW 10.4 mph 16.1 mph N/A   Clear
5:55 PM 28.4 °F 23.3 °F 18.0 °F 65% 30.11 in 10.0 mi West 4.6 mph - N/A   Clear
6:15 PM 27.5 °F 21.1 °F 17.4 °F 66% 30.12 in 10.0 mi West 5.8 mph - N/A   Clear
6:35 PM 26.6 °F 21.2 °F 16.7 °F 66% 30.12 in 10.0 mi West 4.6 mph - N/A   Scattered Clouds
6:55 PM 25.9 °F 21.7 °F 16.5 °F 68% 30.13 in 10.0 mi West 3.5 mph - N/A   Scattered Clouds
7:15 PM 25.9 °F 18.2 °F 16.7 °F 68% 30.14 in 10.0 mi WNW 6.9 mph - N/A   Mostly Cloudy
7:35 PM 26.6 °F 19.1 °F 17.2 °F 68% 30.14 in 10.0 mi West 6.9 mph - N/A   Overcast
7:55 PM 25.7 °F 17.1 °F 16.7 °F 69% 30.14 in 10.0 mi West 8.1 mph - N/A   Mostly Cloudy
8:15 PM 25.7 °F 16.4 °F 17.1 °F 70% 30.14 in 10.0 mi West 9.2 mph - N/A   Scattered Clouds
8:35 PM 25.3 °F 18.5 °F 16.7 °F 70% 30.14 in 10.0 mi West 5.8 mph - N/A   Clear
8:55 PM 23.9 °F 15.8 °F 15.8 °F 71% 30.15 in 10.0 mi West 6.9 mph - N/A   Clear
9:15 PM 23.0 °F 13.9 °F 15.4 °F 73% 30.16 in 10.0 mi West 8.1 mph - N/A   Clear
9:35 PM 23.0 °F 13.9 °F 14.9 °F 71% 30.16 in 10.0 mi West 8.1 mph - N/A   Clear
9:55 PM 21.7 °F 14.3 °F 14.2 °F 73% 30.16 in 10.0 mi West 5.8 mph - N/A   Clear
10:15 PM 21.7 °F 13.2 °F 14.2 °F 73% 30.17 in 10.0 mi West 6.9 mph - N/A   Clear
10:35 PM 21.6 °F 13.0 °F 14.0 °F 73% 30.17 in 10.0 mi West 6.9 mph - N/A   Clear
10:55 PM 21.4 °F 10.4 °F 14.4 °F 74% 30.17 in 10.0 mi West 10.4 mph - N/A   Clear
11:15 PM 21.0 °F 12.4 °F 13.6 °F 73% 30.18 in 10.0 mi West 6.9 mph - N/A   Clear
11:35 PM 20.1 °F 10.3 °F 13.1 °F 74% 30.18 in 10.0 mi West 8.1 mph - N/A   Clear
11:55 PM 20.3 °F 11.5 °F 13.1 °F 74% 30.18 in 10.0 mi West 6.9 mph - N/A   Clear